Lake Orion, Michigan
Current Conditions -  °F | °C
As of 5:53 PM on Friday 19 Dec 2014 (Local Time) from KPTK Reporting Station
Clear Clear  
Wind Chill: 22°   Ceiling: Unl
Heat Index: 27°   Visibility: 10mi
Dew Point: 18°   Wind: 5mph
Humidity: 69%   Direction: 270°W
Pressure: 30.25"   Gusts: NA
Location:  42.78°N, 83.24°W
Report Text: KPTK 192253Z 27004KT 10SM CLR M03/M08 A3025 RMK AO2 SLP258 T10281078
Loading
Personal Weather Stations






























Interactive Weather Map New forecast layout! Learn more

10-Day Weather Forecast

Advertisements
Track Severe Weather on mobile